sensor_id;sensor_type;location;lat;lon;timestamp;P1;durP1;ratioP1;P2;durP2;ratioP2
10582;SDS011;33679;51.218;6.786;2022-10-18T00:02:05;3.17;;;2.63;;
10582;SDS011;33679;51.218;6.786;2022-10-18T00:04:34;4.30;;;3.23;;
10582;SDS011;33679;51.218;6.786;2022-10-18T00:07:03;5.17;;;3.00;;
10582;SDS011;33679;51.218;6.786;2022-10-18T00:09:31;3.60;;;2.90;;
10582;SDS011;33679;51.218;6.786;2022-10-18T00:12:01;4.07;;;3.57;;
10582;SDS011;33679;51.218;6.786;2022-10-18T00:14:28;4.57;;;3.40;;
10582;SDS011;33679;51.218;6.786;2022-10-18T00:16:56;5.20;;;3.00;;
10582;SDS011;33679;51.218;6.786;2022-10-18T00:19:26;5.57;;;3.67;;
10582;SDS011;33679;51.218;6.786;2022-10-18T00:21:54;6.47;;;3.63;;
10582;SDS011;33679;51.218;6.786;2022-10-18T00:24:22;5.97;;;3.30;;
10582;SDS011;33679;51.218;6.786;2022-10-18T00:26:49;3.93;;;2.70;;
10582;SDS011;33679;51.218;6.786;2022-10-18T00:29:18;5.80;;;3.17;;
10582;SDS011;33679;51.218;6.786;2022-10-18T00:31:47;6.80;;;3.13;;
10582;SDS011;33679;51.218;6.786;2022-10-18T00:34:14;5.90;;;3.30;;
10582;SDS011;33679;51.218;6.786;2022-10-18T00:36:42;6.63;;;3.80;;
10582;SDS011;33679;51.218;6.786;2022-10-18T00:39:13;5.37;;;3.40;;
10582;SDS011;33679;51.218;6.786;2022-10-18T00:41:42;5.43;;;3.50;;
10582;SDS011;33679;51.218;6.786;2022-10-18T00:47:18;4.23;;;3.00;;
10582;SDS011;33679;51.218;6.786;2022-10-18T00:49:46;6.33;;;3.27;;
10582;SDS011;33679;51.218;6.786;2022-10-18T00:52:18;8.60;;;3.70;;
10582;SDS011;33679;51.218;6.786;2022-10-18T00:54:49;4.83;;;3.20;;
10582;SDS011;33679;51.218;6.786;2022-10-18T00:57:18;4.60;;;3.17;;
10582;SDS011;33679;51.218;6.786;2022-10-18T00:59:45;4.70;;;2.83;;
10582;SDS011;33679;51.218;6.786;2022-10-18T01:02:13;5.43;;;3.53;;
10582;SDS011;33679;51.218;6.786;2022-10-18T01:04:44;7.17;;;4.07;;
10582;SDS011;33679;51.218;6.786;2022-10-18T01:07:14;3.43;;;3.07;;
10582;SDS011;33679;51.218;6.786;2022-10-18T01:09:51;4.77;;;3.33;;
10582;SDS011;33679;51.218;6.786;2022-10-18T01:12:27;6.80;;;3.60;;
10582;SDS011;33679;51.218;6.786;2022-10-18T01:15:03;5.17;;;3.80;;
10582;SDS011;33679;51.218;6.786;2022-10-18T01:17:41;5.57;;;3.43;;
10582;SDS011;33679;51.218;6.786;2022-10-18T01:20:22;5.20;;;3.40;;
10582;SDS011;33679;51.218;6.786;2022-10-18T01:23:06;6.00;;;4.00;;
10582;SDS011;33679;51.218;6.786;2022-10-18T01:25:39;5.30;;;3.70;;
10582;SDS011;33679;51.218;6.786;2022-10-18T01:28:26;6.80;;;4.27;;
10582;SDS011;33679;51.218;6.786;2022-10-18T01:31:05;7.23;;;4.13;;
10582;SDS011;33679;51.218;6.786;2022-10-18T01:33:38;6.83;;;4.30;;
10582;SDS011;33679;51.218;6.786;2022-10-18T01:36:10;6.47;;;4.13;;
10582;SDS011;33679;51.218;6.786;2022-10-18T01:38:42;6.80;;;4.00;;
10582;SDS011;33679;51.218;6.786;2022-10-18T01:41:12;7.67;;;4.60;;
10582;SDS011;33679;51.218;6.786;2022-10-18T01:43:42;5.00;;;3.90;;
10582;SDS011;33679;51.218;6.786;2022-10-18T01:46:16;6.40;;;4.50;;
10582;SDS011;33679;51.218;6.786;2022-10-18T01:48:48;4.50;;;4.00;;
10582;SDS011;33679;51.218;6.786;2022-10-18T01:51:19;6.70;;;3.97;;
10582;SDS011;33679;51.218;6.786;2022-10-18T01:53:51;6.73;;;3.80;;
10582;SDS011;33679;51.218;6.786;2022-10-18T01:56:23;5.57;;;3.70;;
10582;SDS011;33679;51.218;6.786;2022-10-18T01:59:02;5.97;;;3.83;;
10582;SDS011;33679;51.218;6.786;2022-10-18T02:01:40;5.60;;;3.53;;
10582;SDS011;33679;51.218;6.786;2022-10-18T02:04:19;6.13;;;4.17;;
10582;SDS011;33679;51.218;6.786;2022-10-18T02:06:55;6.87;;;4.17;;
10582;SDS011;33679;51.218;6.786;2022-10-18T02:09:29;4.70;;;3.67;;
10582;SDS011;33679;51.218;6.786;2022-10-18T02:12:02;6.10;;;3.80;;
10582;SDS011;33679;51.218;6.786;2022-10-18T02:14:32;5.50;;;3.60;;
10582;SDS011;33679;51.218;6.786;2022-10-18T02:17:02;6.27;;;3.07;;
10582;SDS011;33679;51.218;6.786;2022-10-18T02:19:34;7.17;;;3.50;;
10582;SDS011;33679;51.218;6.786;2022-10-18T02:22:09;7.80;;;3.90;;
10582;SDS011;33679;51.218;6.786;2022-10-18T02:24:38;5.00;;;3.47;;
10582;SDS011;33679;51.218;6.786;2022-10-18T02:27:09;5.63;;;3.23;;
10582;SDS011;33679;51.218;6.786;2022-10-18T02:29:38;3.67;;;2.70;;
10582;SDS011;33679;51.218;6.786;2022-10-18T02:32:10;4.73;;;3.80;;
10582;SDS011;33679;51.218;6.786;2022-10-18T02:34:43;5.97;;;3.10;;
10582;SDS011;33679;51.218;6.786;2022-10-18T02:37:16;5.97;;;3.33;;
10582;SDS011;33679;51.218;6.786;2022-10-18T02:39:44;6.23;;;4.20;;
10582;SDS011;33679;51.218;6.786;2022-10-18T02:42:14;5.60;;;4.20;;
10582;SDS011;33679;51.218;6.786;2022-10-18T02:44:44;4.30;;;3.50;;
10582;SDS011;33679;51.218;6.786;2022-10-18T02:47:13;4.67;;;3.53;;
10582;SDS011;33679;51.218;6.786;2022-10-18T02:49:40;5.90;;;3.60;;
10582;SDS011;33679;51.218;6.786;2022-10-18T02:52:07;5.30;;;3.87;;
10582;SDS011;33679;51.218;6.786;2022-10-18T02:54:34;5.23;;;3.13;;
10582;SDS011;33679;51.218;6.786;2022-10-18T02:57:04;6.17;;;3.60;;
10582;SDS011;33679;51.218;6.786;2022-10-18T02:59:32;5.20;;;3.90;;
10582;SDS011;33679;51.218;6.786;2022-10-18T03:01:59;6.30;;;4.30;;
10582;SDS011;33679;51.218;6.786;2022-10-18T03:04:28;6.00;;;3.93;;
10582;SDS011;33679;51.218;6.786;2022-10-18T03:06:57;4.60;;;3.60;;
10582;SDS011;33679;51.218;6.786;2022-10-18T03:09:25;4.60;;;3.70;;
10582;SDS011;33679;51.218;6.786;2022-10-18T03:11:53;4.13;;;3.37;;
10582;SDS011;33679;51.218;6.786;2022-10-18T03:14:20;5.00;;;3.60;;
10582;SDS011;33679;51.218;6.786;2022-10-18T03:16:49;4.80;;;3.17;;
10582;SDS011;33679;51.218;6.786;2022-10-18T03:19:18;6.63;;;4.37;;
10582;SDS011;33679;51.218;6.786;2022-10-18T03:21:47;5.80;;;3.90;;
10582;SDS011;33679;51.218;6.786;2022-10-18T03:24:14;4.70;;;3.40;;
10582;SDS011;33679;51.218;6.786;2022-10-18T03:26:42;4.90;;;3.30;;
10582;SDS011;33679;51.218;6.786;2022-10-18T03:29:10;6.80;;;4.00;;
10582;SDS011;33679;51.218;6.786;2022-10-18T03:31:38;4.30;;;3.60;;
10582;SDS011;33679;51.218;6.786;2022-10-18T03:34:05;5.07;;;4.00;;
10582;SDS011;33679;51.218;6.786;2022-10-18T03:36:32;4.90;;;3.43;;
10582;SDS011;33679;51.218;6.786;2022-10-18T03:39:01;6.33;;;3.70;;
10582;SDS011;33679;51.218;6.786;2022-10-18T03:41:36;5.23;;;3.90;;
10582;SDS011;33679;51.218;6.786;2022-10-18T03:44:06;5.40;;;3.77;;
10582;SDS011;33679;51.218;6.786;2022-10-18T03:46:34;6.87;;;4.47;;
10582;SDS011;33679;51.218;6.786;2022-10-18T03:49:01;6.40;;;4.43;;
10582;SDS011;33679;51.218;6.786;2022-10-18T03:51:29;6.20;;;4.47;;
10582;SDS011;33679;51.218;6.786;2022-10-18T03:53:56;8.53;;;5.23;;
10582;SDS011;33679;51.218;6.786;2022-10-18T03:56:25;6.30;;;4.10;;
10582;SDS011;33679;51.218;6.786;2022-10-18T03:58:52;8.03;;;3.90;;
10582;SDS011;33679;51.218;6.786;2022-10-18T04:01:22;5.70;;;4.03;;
10582;SDS011;33679;51.218;6.786;2022-10-18T04:03:51;13.77;;;4.90;;
10582;SDS011;33679;51.218;6.786;2022-10-18T04:06:20;5.90;;;4.10;;
10582;SDS011;33679;51.218;6.786;2022-10-18T04:08:49;6.33;;;3.83;;
10582;SDS011;33679;51.218;6.786;2022-10-18T04:11:17;7.10;;;4.40;;
10582;SDS011;33679;51.218;6.786;2022-10-18T04:13:48;7.73;;;4.70;;
10582;SDS011;33679;51.218;6.786;2022-10-18T04:16:18;8.03;;;4.30;;
10582;SDS011;33679;51.218;6.786;2022-10-18T04:18:48;6.83;;;4.73;;
10582;SDS011;33679;51.218;6.786;2022-10-18T04:21:16;4.97;;;3.80;;
10582;SDS011;33679;51.218;6.786;2022-10-18T04:23:45;7.40;;;4.73;;
10582;SDS011;33679;51.218;6.786;2022-10-18T04:26:16;5.87;;;4.07;;
10582;SDS011;33679;51.218;6.786;2022-10-18T04:28:48;8.23;;;4.20;;
10582;SDS011;33679;51.218;6.786;2022-10-18T04:31:15;5.70;;;4.00;;
10582;SDS011;33679;51.218;6.786;2022-10-18T04:33:42;6.63;;;4.10;;
10582;SDS011;33679;51.218;6.786;2022-10-18T04:36:12;6.70;;;4.10;;
10582;SDS011;33679;51.218;6.786;2022-10-18T04:38:39;7.00;;;4.70;;
10582;SDS011;33679;51.218;6.786;2022-10-18T04:41:09;7.77;;;4.63;;
10582;SDS011;33679;51.218;6.786;2022-10-18T04:43:36;9.73;;;5.70;;
10582;SDS011;33679;51.218;6.786;2022-10-18T04:46:05;9.60;;;4.90;;
10582;SDS011;33679;51.218;6.786;2022-10-18T04:48:32;10.00;;;6.20;;
10582;SDS011;33679;51.218;6.786;2022-10-18T04:50:59;11.73;;;6.33;;
10582;SDS011;33679;51.218;6.786;2022-10-18T04:53:29;11.53;;;6.13;;
10582;SDS011;33679;51.218;6.786;2022-10-18T04:55:57;12.57;;;7.30;;
10582;SDS011;33679;51.218;6.786;2022-10-18T04:58:24;13.93;;;7.60;;
10582;SDS011;33679;51.218;6.786;2022-10-18T05:00:53;11.83;;;6.83;;
10582;SDS011;33679;51.218;6.786;2022-10-18T05:03:22;13.43;;;7.93;;
10582;SDS011;33679;51.218;6.786;2022-10-18T05:05:50;14.00;;;7.50;;
10582;SDS011;33679;51.218;6.786;2022-10-18T05:08:17;11.17;;;6.50;;
10582;SDS011;33679;51.218;6.786;2022-10-18T05:10:46;14.50;;;8.30;;
10582;SDS011;33679;51.218;6.786;2022-10-18T05:13:14;12.43;;;6.87;;
10582;SDS011;33679;51.218;6.786;2022-10-18T05:15:41;11.63;;;7.43;;
10582;SDS011;33679;51.218;6.786;2022-10-18T05:18:08;16.67;;;9.37;;
10582;SDS011;33679;51.218;6.786;2022-10-18T05:20:36;14.80;;;8.50;;
10582;SDS011;33679;51.218;6.786;2022-10-18T05:23:04;15.60;;;8.07;;
10582;SDS011;33679;51.218;6.786;2022-10-18T05:25:31;14.27;;;8.33;;
10582;SDS011;33679;51.218;6.786;2022-10-18T05:28:00;14.57;;;7.63;;
10582;SDS011;33679;51.218;6.786;2022-10-18T05:30:28;16.40;;;9.20;;
10582;SDS011;33679;51.218;6.786;2022-10-18T05:32:55;18.67;;;9.83;;
10582;SDS011;33679;51.218;6.786;2022-10-18T05:35:22;16.83;;;7.97;;
10582;SDS011;33679;51.218;6.786;2022-10-18T05:37:54;18.03;;;9.57;;
10582;SDS011;33679;51.218;6.786;2022-10-18T05:40:21;18.83;;;9.50;;
10582;SDS011;33679;51.218;6.786;2022-10-18T05:42:50;16.57;;;8.33;;
10582;SDS011;33679;51.218;6.786;2022-10-18T05:45:17;13.60;;;7.50;;
10582;SDS011;33679;51.218;6.786;2022-10-18T05:47:47;14.97;;;9.20;;
10582;SDS011;33679;51.218;6.786;2022-10-18T05:50:14;14.97;;;8.17;;
10582;SDS011;33679;51.218;6.786;2022-10-18T05:52:42;17.80;;;9.03;;
10582;SDS011;33679;51.218;6.786;2022-10-18T05:55:13;13.90;;;8.80;;
10582;SDS011;33679;51.218;6.786;2022-10-18T05:57:42;13.97;;;8.00;;
10582;SDS011;33679;51.218;6.786;2022-10-18T06:00:15;15.60;;;8.73;;
10582;SDS011;33679;51.218;6.786;2022-10-18T06:02:42;13.57;;;9.00;;
10582;SDS011;33679;51.218;6.786;2022-10-18T06:05:09;16.00;;;8.97;;
10582;SDS011;33679;51.218;6.786;2022-10-18T06:07:36;16.77;;;10.20;;
10582;SDS011;33679;51.218;6.786;2022-10-18T06:10:04;20.00;;;11.00;;
10582;SDS011;33679;51.218;6.786;2022-10-18T06:12:34;16.93;;;9.30;;
10582;SDS011;33679;51.218;6.786;2022-10-18T06:15:01;19.60;;;10.77;;
10582;SDS011;33679;51.218;6.786;2022-10-18T06:17:31;17.27;;;9.73;;
10582;SDS011;33679;51.218;6.786;2022-10-18T06:19:58;17.33;;;11.10;;
10582;SDS011;33679;51.218;6.786;2022-10-18T06:22:25;16.53;;;9.73;;
10582;SDS011;33679;51.218;6.786;2022-10-18T06:24:52;21.50;;;10.97;;
10582;SDS011;33679;51.218;6.786;2022-10-18T06:27:22;20.13;;;9.57;;
10582;SDS011;33679;51.218;6.786;2022-10-18T06:29:51;17.73;;;10.07;;
10582;SDS011;33679;51.218;6.786;2022-10-18T06:32:19;19.80;;;11.23;;
10582;SDS011;33679;51.218;6.786;2022-10-18T06:34:46;20.47;;;11.73;;
10582;SDS011;33679;51.218;6.786;2022-10-18T06:37:13;24.73;;;14.00;;
10582;SDS011;33679;51.218;6.786;2022-10-18T06:39:42;22.90;;;12.20;;
10582;SDS011;33679;51.218;6.786;2022-10-18T06:42:12;21.90;;;12.10;;
10582;SDS011;33679;51.218;6.786;2022-10-18T06:44:39;21.00;;;12.63;;
10582;SDS011;33679;51.218;6.786;2022-10-18T06:47:08;23.00;;;12.60;;
10582;SDS011;33679;51.218;6.786;2022-10-18T06:49:36;19.87;;;10.77;;
10582;SDS011;33679;51.218;6.786;2022-10-18T06:52:05;18.80;;;11.47;;
10582;SDS011;33679;51.218;6.786;2022-10-18T06:54:33;15.77;;;10.30;;
10582;SDS011;33679;51.218;6.786;2022-10-18T06:57:00;19.50;;;11.73;;
10582;SDS011;33679;51.218;6.786;2022-10-18T06:59:28;25.87;;;15.40;;
10582;SDS011;33679;51.218;6.786;2022-10-18T07:01:55;19.27;;;11.23;;
10582;SDS011;33679;51.218;6.786;2022-10-18T07:04:23;18.20;;;10.63;;
10582;SDS011;33679;51.218;6.786;2022-10-18T07:06:53;16.73;;;10.07;;
10582;SDS011;33679;51.218;6.786;2022-10-18T07:09:21;22.63;;;11.60;;
10582;SDS011;33679;51.218;6.786;2022-10-18T07:11:48;18.73;;;10.63;;
10582;SDS011;33679;51.218;6.786;2022-10-18T07:14:19;22.40;;;11.50;;
10582;SDS011;33679;51.218;6.786;2022-10-18T07:16:46;23.10;;;11.13;;
10582;SDS011;33679;51.218;6.786;2022-10-18T07:19:15;28.93;;;13.90;;
10582;SDS011;33679;51.218;6.786;2022-10-18T07:21:44;20.10;;;10.57;;
10582;SDS011;33679;51.218;6.786;2022-10-18T07:24:13;21.27;;;11.60;;
10582;SDS011;33679;51.218;6.786;2022-10-18T07:26:41;23.43;;;11.87;;
10582;SDS011;33679;51.218;6.786;2022-10-18T07:29:09;28.20;;;12.77;;
10582;SDS011;33679;51.218;6.786;2022-10-18T07:31:37;19.87;;;11.20;;
10582;SDS011;33679;51.218;6.786;2022-10-18T07:34:05;24.50;;;12.70;;
10582;SDS011;33679;51.218;6.786;2022-10-18T07:36:33;25.60;;;13.53;;
10582;SDS011;33679;51.218;6.786;2022-10-18T07:39:02;22.83;;;12.23;;
10582;SDS011;33679;51.218;6.786;2022-10-18T07:41:30;18.30;;;11.57;;
10582;SDS011;33679;51.218;6.786;2022-10-18T07:43:58;35.10;;;17.77;;
10582;SDS011;33679;51.218;6.786;2022-10-18T07:46:26;30.33;;;15.17;;
10582;SDS011;33679;51.218;6.786;2022-10-18T07:48:53;26.60;;;12.87;;
10582;SDS011;33679;51.218;6.786;2022-10-18T07:51:22;21.80;;;13.03;;
10582;SDS011;33679;51.218;6.786;2022-10-18T07:53:49;22.17;;;13.97;;
10582;SDS011;33679;51.218;6.786;2022-10-18T07:56:19;23.37;;;12.13;;
10582;SDS011;33679;51.218;6.786;2022-10-18T07:58:48;21.80;;;12.27;;
10582;SDS011;33679;51.218;6.786;2022-10-18T08:01:17;22.20;;;11.40;;
10582;SDS011;33679;51.218;6.786;2022-10-18T08:03:45;25.23;;;12.50;;
10582;SDS011;33679;51.218;6.786;2022-10-18T08:06:12;20.27;;;12.07;;
10582;SDS011;33679;51.218;6.786;2022-10-18T08:08:42;21.93;;;12.27;;
10582;SDS011;33679;51.218;6.786;2022-10-18T08:11:12;23.60;;;12.70;;
10582;SDS011;33679;51.218;6.786;2022-10-18T08:13:42;25.47;;;13.73;;
10582;SDS011;33679;51.218;6.786;2022-10-18T08:16:11;31.73;;;15.83;;
10582;SDS011;33679;51.218;6.786;2022-10-18T08:18:40;29.90;;;14.90;;
10582;SDS011;33679;51.218;6.786;2022-10-18T08:21:10;22.73;;;12.13;;
10582;SDS011;33679;51.218;6.786;2022-10-18T08:23:39;24.87;;;12.87;;
10582;SDS011;33679;51.218;6.786;2022-10-18T08:26:07;23.00;;;12.10;;
10582;SDS011;33679;51.218;6.786;2022-10-18T08:28:35;24.60;;;13.30;;
10582;SDS011;33679;51.218;6.786;2022-10-18T08:31:04;35.70;;;18.57;;
10582;SDS011;33679;51.218;6.786;2022-10-18T08:33:33;28.73;;;16.80;;
10582;SDS011;33679;51.218;6.786;2022-10-18T08:36:02;28.50;;;16.50;;
10582;SDS011;33679;51.218;6.786;2022-10-18T08:38:31;35.50;;;16.40;;
10582;SDS011;33679;51.218;6.786;2022-10-18T08:40:59;28.10;;;15.23;;
10582;SDS011;33679;51.218;6.786;2022-10-18T08:43:30;27.10;;;14.33;;
10582;SDS011;33679;51.218;6.786;2022-10-18T08:46:02;28.70;;;15.10;;
10582;SDS011;33679;51.218;6.786;2022-10-18T08:48:31;33.10;;;17.50;;
10582;SDS011;33679;51.218;6.786;2022-10-18T08:51:02;37.43;;;17.80;;
10582;SDS011;33679;51.218;6.786;2022-10-18T08:53:33;31.67;;;17.33;;
10582;SDS011;33679;51.218;6.786;2022-10-18T08:56:06;37.57;;;17.90;;
10582;SDS011;33679;51.218;6.786;2022-10-18T08:58:39;35.27;;;16.90;;
10582;SDS011;33679;51.218;6.786;2022-10-18T09:01:12;40.07;;;21.23;;
10582;SDS011;33679;51.218;6.786;2022-10-18T09:03:55;43.07;;;20.00;;
10582;SDS011;33679;51.218;6.786;2022-10-18T09:06:36;35.23;;;17.87;;
10582;SDS011;33679;51.218;6.786;2022-10-18T09:09:14;44.10;;;20.03;;
10582;SDS011;33679;51.218;6.786;2022-10-18T09:11:54;40.70;;;18.83;;
10582;SDS011;33679;51.218;6.786;2022-10-18T09:14:48;39.40;;;19.60;;
10582;SDS011;33679;51.218;6.786;2022-10-18T09:17:36;47.53;;;22.87;;
10582;SDS011;33679;51.218;6.786;2022-10-18T09:20:18;47.27;;;20.80;;
10582;SDS011;33679;51.218;6.786;2022-10-18T09:22:52;38.30;;;18.33;;
10582;SDS011;33679;51.218;6.786;2022-10-18T09:25:22;39.83;;;20.00;;
10582;SDS011;33679;51.218;6.786;2022-10-18T09:27:52;39.50;;;20.40;;
10582;SDS011;33679;51.218;6.786;2022-10-18T09:30:24;37.87;;;19.40;;
10582;SDS011;33679;51.218;6.786;2022-10-18T09:33:00;34.30;;;19.63;;
10582;SDS011;33679;51.218;6.786;2022-10-18T09:35:37;31.00;;;18.43;;
10582;SDS011;33679;51.218;6.786;2022-10-18T09:38:08;41.13;;;21.47;;
10582;SDS011;33679;51.218;6.786;2022-10-18T09:40:42;33.03;;;18.00;;
10582;SDS011;33679;51.218;6.786;2022-10-18T09:43:17;38.00;;;20.73;;
10582;SDS011;33679;51.218;6.786;2022-10-18T09:45:48;35.90;;;19.60;;
10582;SDS011;33679;51.218;6.786;2022-10-18T09:48:19;37.40;;;19.83;;
10582;SDS011;33679;51.218;6.786;2022-10-18T09:50:55;37.03;;;18.90;;
10582;SDS011;33679;51.218;6.786;2022-10-18T09:53:25;37.83;;;20.57;;
10582;SDS011;33679;51.218;6.786;2022-10-18T09:56:01;39.10;;;20.80;;
10582;SDS011;33679;51.218;6.786;2022-10-18T09:58:38;35.60;;;19.20;;
10582;SDS011;33679;51.218;6.786;2022-10-18T10:01:09;46.90;;;25.00;;
10582;SDS011;33679;51.218;6.786;2022-10-18T10:03:38;56.13;;;24.50;;
10582;SDS011;33679;51.218;6.786;2022-10-18T10:06:22;54.83;;;26.93;;
10582;SDS011;33679;51.218;6.786;2022-10-18T10:08:55;64.83;;;30.00;;
10582;SDS011;33679;51.218;6.786;2022-10-18T10:11:29;77.73;;;30.53;;
10582;SDS011;33679;51.218;6.786;2022-10-18T10:16:48;73.10;;;30.97;;
10582;SDS011;33679;51.218;6.786;2022-10-18T10:19:18;74.13;;;32.17;;
10582;SDS011;33679;51.218;6.786;2022-10-18T10:21:49;89.10;;;32.80;;
10582;SDS011;33679;51.218;6.786;2022-10-18T10:24:21;66.57;;;28.70;;
10582;SDS011;33679;51.218;6.786;2022-10-18T10:26:57;78.50;;;31.70;;
10582;SDS011;33679;51.218;6.786;2022-10-18T10:32:21;83.53;;;32.43;;
10582;SDS011;33679;51.218;6.786;2022-10-18T10:34:51;86.10;;;34.67;;
10582;SDS011;33679;51.218;6.786;2022-10-18T10:37:22;77.77;;;33.00;;
10582;SDS011;33679;51.218;6.786;2022-10-18T10:40:17;66.53;;;28.77;;
10582;SDS011;33679;51.218;6.786;2022-10-18T10:42:56;86.83;;;34.03;;
10582;SDS011;33679;51.218;6.786;2022-10-18T10:45:30;77.50;;;34.33;;
10582;SDS011;33679;51.218;6.786;2022-10-18T10:48:04;82.90;;;34.40;;
10582;SDS011;33679;51.218;6.786;2022-10-18T10:50:51;72.40;;;31.67;;
10582;SDS011;33679;51.218;6.786;2022-10-18T10:53:33;70.00;;;32.23;;
10582;SDS011;33679;51.218;6.786;2022-10-18T10:56:11;64.63;;;28.50;;
10582;SDS011;33679;51.218;6.786;2022-10-18T10:58:42;66.53;;;29.83;;
10582;SDS011;33679;51.218;6.786;2022-10-18T11:01:23;69.50;;;30.33;;
10582;SDS011;33679;51.218;6.786;2022-10-18T11:03:56;60.50;;;28.13;;
10582;SDS011;33679;51.218;6.786;2022-10-18T11:06:33;60.33;;;28.67;;
10582;SDS011;33679;51.218;6.786;2022-10-18T11:09:18;66.50;;;30.00;;
10582;SDS011;33679;51.218;6.786;2022-10-18T11:12:00;69.60;;;28.83;;
10582;SDS011;33679;51.218;6.786;2022-10-18T11:14:33;65.20;;;28.60;;
10582;SDS011;33679;51.218;6.786;2022-10-18T11:17:16;55.37;;;23.83;;
10582;SDS011;33679;51.218;6.786;2022-10-18T11:19:54;48.60;;;22.00;;
10582;SDS011;33679;51.218;6.786;2022-10-18T11:22:49;53.40;;;24.27;;
10582;SDS011;33679;51.218;6.786;2022-10-18T11:28:26;39.70;;;19.23;;
10582;SDS011;33679;51.218;6.786;2022-10-18T11:31:07;44.03;;;19.57;;
10582;SDS011;33679;51.218;6.786;2022-10-18T11:33:52;39.37;;;19.37;;
10582;SDS011;33679;51.218;6.786;2022-10-18T11:36:31;34.20;;;17.87;;
10582;SDS011;33679;51.218;6.786;2022-10-18T11:39:05;36.67;;;17.00;;
10582;SDS011;33679;51.218;6.786;2022-10-18T11:41:39;31.43;;;16.07;;
10582;SDS011;33679;51.218;6.786;2022-10-18T11:44:17;29.27;;;14.73;;
10582;SDS011;33679;51.218;6.786;2022-10-18T11:46:53;29.40;;;16.27;;
10582;SDS011;33679;51.218;6.786;2022-10-18T11:49:31;32.27;;;14.93;;
10582;SDS011;33679;51.218;6.786;2022-10-18T11:52:18;27.20;;;13.30;;
10582;SDS011;33679;51.218;6.786;2022-10-18T11:54:55;27.70;;;12.80;;
10582;SDS011;33679;51.218;6.786;2022-10-18T11:57:38;30.03;;;12.87;;
10582;SDS011;33679;51.218;6.786;2022-10-18T12:00:22;28.03;;;14.47;;
10582;SDS011;33679;51.218;6.786;2022-10-18T12:05:49;25.50;;;13.90;;
10582;SDS011;33679;51.218;6.786;2022-10-18T12:08:22;24.17;;;13.53;;
10582;SDS011;33679;51.218;6.786;2022-10-18T12:10:57;20.23;;;12.03;;
10582;SDS011;33679;51.218;6.786;2022-10-18T12:13:36;27.60;;;12.50;;
10582;SDS011;33679;51.218;6.786;2022-10-18T12:16:14;18.77;;;10.60;;
10582;SDS011;33679;51.218;6.786;2022-10-18T12:18:48;20.63;;;10.87;;
10582;SDS011;33679;51.218;6.786;2022-10-18T12:21:21;28.30;;;14.37;;
10582;SDS011;33679;51.218;6.786;2022-10-18T12:23:51;27.17;;;12.80;;
10582;SDS011;33679;51.218;6.786;2022-10-18T12:26:25;17.23;;;11.50;;
10582;SDS011;33679;51.218;6.786;2022-10-18T12:28:57;20.93;;;10.57;;
10582;SDS011;33679;51.218;6.786;2022-10-18T12:31:33;16.50;;;9.30;;
10582;SDS011;33679;51.218;6.786;2022-10-18T12:34:12;20.87;;;10.80;;
10582;SDS011;33679;51.218;6.786;2022-10-18T12:40:12;22.33;;;9.20;;
10582;SDS011;33679;51.218;6.786;2022-10-18T12:42:43;19.80;;;9.27;;
10582;SDS011;33679;51.218;6.786;2022-10-18T12:45:19;20.20;;;9.23;;
10582;SDS011;33679;51.218;6.786;2022-10-18T12:47:51;15.13;;;8.93;;
10582;SDS011;33679;51.218;6.786;2022-10-18T12:50:25;18.03;;;8.93;;
10582;SDS011;33679;51.218;6.786;2022-10-18T12:53:01;16.03;;;8.60;;
10582;SDS011;33679;51.218;6.786;2022-10-18T12:55:31;20.50;;;8.83;;
10582;SDS011;33679;51.218;6.786;2022-10-18T12:58:03;19.20;;;8.30;;
10582;SDS011;33679;51.218;6.786;2022-10-18T13:06:25;19.27;;;10.77;;
10582;SDS011;33679;51.218;6.786;2022-10-18T13:12:50;18.13;;;8.70;;
10582;SDS011;33679;51.218;6.786;2022-10-18T13:15:34;15.63;;;8.93;;
10582;SDS011;33679;51.218;6.786;2022-10-18T13:18:16;15.40;;;7.63;;
10582;SDS011;33679;51.218;6.786;2022-10-18T13:20:52;13.70;;;8.00;;
10582;SDS011;33679;51.218;6.786;2022-10-18T13:23:36;11.40;;;7.90;;
10582;SDS011;33679;51.218;6.786;2022-10-18T13:26:15;20.40;;;9.80;;
10582;SDS011;33679;51.218;6.786;2022-10-18T13:28:51;13.43;;;8.07;;
10582;SDS011;33679;51.218;6.786;2022-10-18T13:31:22;17.93;;;8.20;;
10582;SDS011;33679;51.218;6.786;2022-10-18T13:34:07;17.20;;;8.60;;
10582;SDS011;33679;51.218;6.786;2022-10-18T13:36:53;16.70;;;9.53;;
10582;SDS011;33679;51.218;6.786;2022-10-18T13:39:25;21.47;;;11.40;;
10582;SDS011;33679;51.218;6.786;2022-10-18T13:44:47;13.73;;;7.33;;
10582;SDS011;33679;51.218;6.786;2022-10-18T13:47:14;11.60;;;6.70;;
10582;SDS011;33679;51.218;6.786;2022-10-18T13:59:24;13.90;;;6.83;;
10582;SDS011;33679;51.218;6.786;2022-10-18T14:05:14;14.53;;;7.07;;
10582;SDS011;33679;51.218;6.786;2022-10-18T14:08:10;12.13;;;5.53;;
10582;SDS011;33679;51.218;6.786;2022-10-18T14:10:47;11.67;;;5.43;;
10582;SDS011;33679;51.218;6.786;2022-10-18T14:13:25;12.90;;;6.10;;
10582;SDS011;33679;51.218;6.786;2022-10-18T14:15:58;13.30;;;6.83;;
10582;SDS011;33679;51.218;6.786;2022-10-18T14:18:32;17.10;;;6.03;;
10582;SDS011;33679;51.218;6.786;2022-10-18T14:21:06;16.23;;;6.20;;
10582;SDS011;33679;51.218;6.786;2022-10-18T14:23:41;27.10;;;13.20;;
10582;SDS011;33679;51.218;6.786;2022-10-18T14:26:13;17.53;;;7.20;;
10582;SDS011;33679;51.218;6.786;2022-10-18T14:28:57;11.73;;;5.53;;
10582;SDS011;33679;51.218;6.786;2022-10-18T14:31:28;15.53;;;5.13;;
10582;SDS011;33679;51.218;6.786;2022-10-18T14:34:00;13.43;;;6.23;;
10582;SDS011;33679;51.218;6.786;2022-10-18T14:36:33;10.53;;;4.93;;
10582;SDS011;33679;51.218;6.786;2022-10-18T14:39:14;12.03;;;5.23;;
10582;SDS011;33679;51.218;6.786;2022-10-18T14:41:55;13.03;;;6.03;;
10582;SDS011;33679;51.218;6.786;2022-10-18T14:44:25;17.77;;;5.20;;
10582;SDS011;33679;51.218;6.786;2022-10-18T14:46:58;11.50;;;4.80;;
10582;SDS011;33679;51.218;6.786;2022-10-18T14:49:27;13.17;;;6.23;;
10582;SDS011;33679;51.218;6.786;2022-10-18T14:51:56;13.80;;;6.03;;
10582;SDS011;33679;51.218;6.786;2022-10-18T14:54:32;14.00;;;6.10;;
10582;SDS011;33679;51.218;6.786;2022-10-18T14:57:24;11.00;;;4.93;;
10582;SDS011;33679;51.218;6.786;2022-10-18T15:00:06;7.23;;;4.30;;
10582;SDS011;33679;51.218;6.786;2022-10-18T15:03:03;8.90;;;3.80;;
10582;SDS011;33679;51.218;6.786;2022-10-18T15:05:32;12.00;;;4.63;;
10582;SDS011;33679;51.218;6.786;2022-10-18T15:08:07;7.90;;;4.40;;
10582;SDS011;33679;51.218;6.786;2022-10-18T15:10:45;11.93;;;3.53;;
10582;SDS011;33679;51.218;6.786;2022-10-18T15:13:20;6.53;;;3.30;;
10582;SDS011;33679;51.218;6.786;2022-10-18T15:16:00;8.73;;;3.70;;
10582;SDS011;33679;51.218;6.786;2022-10-18T15:18:28;7.67;;;3.40;;
10582;SDS011;33679;51.218;6.786;2022-10-18T15:21:09;12.03;;;3.67;;
10582;SDS011;33679;51.218;6.786;2022-10-18T15:24:27;6.13;;;3.40;;
10582;SDS011;33679;51.218;6.786;2022-10-18T15:26:57;8.93;;;3.13;;
10582;SDS011;33679;51.218;6.786;2022-10-18T15:29:30;8.60;;;3.57;;
10582;SDS011;33679;51.218;6.786;2022-10-18T15:32:07;8.73;;;3.23;;
10582;SDS011;33679;51.218;6.786;2022-10-18T15:34:43;8.73;;;3.00;;
10582;SDS011;33679;51.218;6.786;2022-10-18T15:37:26;10.00;;;3.13;;
10582;SDS011;33679;51.218;6.786;2022-10-18T15:43:02;6.17;;;3.33;;
10582;SDS011;33679;51.218;6.786;2022-10-18T15:45:37;5.23;;;2.90;;
10582;SDS011;33679;51.218;6.786;2022-10-18T15:48:18;8.10;;;3.87;;
10582;SDS011;33679;51.218;6.786;2022-10-18T15:50:48;9.97;;;4.37;;